createdAt,value
2016-11-30T00:00:07.641Z,-4.43
2016-11-30T00:01:07.618Z,-4.36
2016-11-30T00:02:07.598Z,-4.39
2016-11-30T00:03:07.580Z,-4.37
2016-11-30T00:04:07.562Z,-4.34
2016-11-30T00:05:07.542Z,-4.33
2016-11-30T00:06:07.521Z,-4.27
2016-11-30T00:07:07.501Z,-4.34
2016-11-30T00:08:07.483Z,-4.27
2016-11-30T00:09:07.475Z,-4.3
2016-11-30T00:10:07.449Z,-4.34
2016-11-30T00:11:07.426Z,-4.33
2016-11-30T00:12:07.408Z,-4.27
2016-11-30T00:13:07.390Z,-4.27
2016-11-30T00:14:07.372Z,-4.33
2016-11-30T00:15:07.350Z,-4.29
2016-11-30T00:16:07.332Z,-4.34
2016-11-30T00:17:07.315Z,-4.45
2016-11-30T00:18:07.295Z,-4.5
2016-11-30T00:19:07.275Z,-4.51
2016-11-30T00:20:07.259Z,-4.43
2016-11-30T00:21:07.269Z,-4.43
2016-11-30T00:22:07.223Z,-4.5
2016-11-30T00:23:07.202Z,-4.48
2016-11-30T00:24:07.179Z,-4.43
2016-11-30T00:25:07.163Z,-4.43
2016-11-30T00:26:07.141Z,-4.44
2016-11-30T00:27:07.120Z,-4.47
2016-11-30T00:28:07.103Z,-4.43
2016-11-30T00:29:07.083Z,-4.36
2016-11-30T00:30:07.382Z,-4.47
2016-11-30T00:31:07.073Z,-4.43
2016-11-30T00:32:07.058Z,-4.32
2016-11-30T00:33:07.009Z,-4.33
2016-11-30T00:34:06.990Z,-4.33
2016-11-30T00:35:06.972Z,-4.32
2016-11-30T00:36:06.950Z,-4.34
2016-11-30T00:37:06.936Z,-4.34
2016-11-30T00:38:06.909Z,-4.3
2016-11-30T00:39:06.891Z,-4.41
2016-11-30T00:40:06.876Z,-4.27
2016-11-30T00:41:06.854Z,-4.34
2016-11-30T00:42:06.836Z,-4.27
2016-11-30T00:43:06.817Z,-4.27
2016-11-30T00:44:06.801Z,-4.34
2016-11-30T00:45:06.778Z,-4.3
2016-11-30T00:46:06.761Z,-4.33
2016-11-30T00:47:06.742Z,-4.34
2016-11-30T00:48:06.722Z,-4.23
2016-11-30T00:49:06.700Z,-4.23
2016-11-30T00:50:06.684Z,-4.22
2016-11-30T00:51:06.665Z,-4.19
2016-11-30T00:52:06.644Z,-4.27
2016-11-30T00:53:06.629Z,-4.3
2016-11-30T00:54:06.603Z,-4.23
2016-11-30T00:55:06.591Z,-4.27
2016-11-30T00:56:06.572Z,-4.27
2016-11-30T00:57:06.551Z,-4.27
2016-11-30T00:58:06.527Z,-4.25
2016-11-30T00:59:06.514Z,-4.26
2016-11-30T01:00:06.809Z,-4.26
2016-11-30T01:01:06.472Z,-4.3
2016-11-30T01:02:06.455Z,-4.25
2016-11-30T01:03:06.443Z,-4.22
2016-11-30T01:04:06.416Z,-4.27
2016-11-30T01:05:06.392Z,-4.3
2016-11-30T01:06:06.376Z,-4.22
2016-11-30T01:07:06.359Z,-4.22
2016-11-30T01:08:06.339Z,-4.15
2016-11-30T01:09:06.636Z,-4.12
2016-11-30T01:10:06.300Z,-4.16
2016-11-30T01:11:06.283Z,-4.27
2016-11-30T01:12:06.259Z,-4.14
2016-11-30T01:13:06.242Z,-4.14
2016-11-30T01:14:06.224Z,-4.12
2016-11-30T01:15:06.211Z,-4.26
2016-11-30T01:16:06.182Z,-4.12
2016-11-30T01:17:06.165Z,-4.25
2016-11-30T01:18:06.147Z,-4.22
2016-11-30T01:19:06.127Z,-4.25
2016-11-30T01:20:06.110Z,-4.27
2016-11-30T01:21:06.090Z,-4.29
2016-11-30T01:22:06.071Z,-4.16
2016-11-30T01:23:06.051Z,-4.32
2016-11-30T01:24:06.032Z,-4.27
2016-11-30T01:25:06.011Z,-4.23
2016-11-30T01:26:06.001Z,-4.27
2016-11-30T01:27:06.290Z,-4.25
2016-11-30T01:28:05.952Z,-4.36
2016-11-30T01:29:05.936Z,-4.19
2016-11-30T01:30:05.916Z,-4.34
2016-11-30T01:31:05.897Z,-4.25
2016-11-30T01:32:05.875Z,-4.29
2016-11-30T01:33:05.862Z,-4.3
2016-11-30T01:34:05.839Z,-4.14
2016-11-30T01:35:05.822Z,-4.25
2016-11-30T01:36:05.799Z,-4.22
2016-11-30T01:37:05.781Z,-4.18
2016-11-30T01:38:05.765Z,-4.19
2016-11-30T01:39:05.743Z,-4.29
2016-11-30T01:40:05.757Z,-4.27
2016-11-30T01:41:05.705Z,-4.18
2016-11-30T01:42:05.687Z,-4.29
2016-11-30T01:43:05.667Z,-4.29
2016-11-30T01:44:05.667Z,-4.27
2016-11-30T01:45:05.632Z,-4.15
2016-11-30T01:46:05.621Z,-4.19
2016-11-30T01:47:05.593Z,-4.18
2016-11-30T01:48:05.573Z,-4.11
2016-11-30T01:49:05.554Z,-4.15
2016-11-30T01:50:05.534Z,-4.09
2016-11-30T01:51:05.514Z,-4.11
2016-11-30T01:52:05.497Z,-4.05
2016-11-30T01:53:05.479Z,-4.04
2016-11-30T01:54:05.459Z,-4.06
2016-11-30T01:55:05.436Z,-4
2016-11-30T01:56:05.424Z,-3.96
2016-11-30T01:57:05.400Z,-3.88
2016-11-30T01:58:05.383Z,-3.88
2016-11-30T01:59:05.361Z,-3.9
2016-11-30T02:00:05.342Z,-3.94
2016-11-30T02:01:05.369Z,-4.04
2016-11-30T02:02:05.305Z,-4.05
2016-11-30T02:03:05.285Z,-4.15
2016-11-30T02:04:05.590Z,-4.16
2016-11-30T02:05:05.315Z,-4.14
2016-11-30T02:06:05.228Z,-4.11
2016-11-30T02:07:05.206Z,-4.05
2016-11-30T02:08:05.193Z,-3.94
2016-11-30T02:09:05.171Z,-3.98
2016-11-30T02:10:05.150Z,-3.96
2016-11-30T02:11:05.135Z,-3.88
2016-11-30T02:12:05.119Z,-3.79
2016-11-30T02:13:05.097Z,-3.86
2016-11-30T02:14:05.074Z,-3.8
2016-11-30T02:15:05.060Z,-3.72
2016-11-30T02:16:05.039Z,-3.71
2016-11-30T02:17:05.020Z,-3.68
2016-11-30T02:18:05.005Z,-3.72
2016-11-30T02:19:04.985Z,-3.63
2016-11-30T02:20:04.964Z,-3.54
2016-11-30T02:21:04.949Z,-3.54
2016-11-30T02:22:04.923Z,-3.48
2016-11-30T02:23:04.906Z,-3.54
2016-11-30T02:24:04.887Z,-3.56
2016-11-30T02:25:04.869Z,-3.53
2016-11-30T02:26:04.850Z,-3.42
2016-11-30T02:27:04.831Z,-3.5
2016-11-30T02:28:04.812Z,-3.54
2016-11-30T02:29:04.794Z,-3.4
2016-11-30T02:30:04.772Z,-3.43
2016-11-30T02:31:04.756Z,-3.39
2016-11-30T02:32:04.732Z,-3.43
2016-11-30T02:33:04.720Z,-3.4
2016-11-30T02:34:04.700Z,-3.4
2016-11-30T02:35:04.677Z,-3.33
2016-11-30T02:36:04.660Z,-3.35
2016-11-30T02:37:04.641Z,-3.33
2016-11-30T02:38:04.622Z,-3.32
2016-11-30T02:39:04.608Z,-3.38
2016-11-30T02:40:04.586Z,-3.35
2016-11-30T02:41:04.568Z,-3.32
2016-11-30T02:42:04.548Z,-3.32
2016-11-30T02:43:04.536Z,-3.29
2016-11-30T02:44:04.513Z,-3.35
2016-11-30T02:45:04.497Z,-3.42
2016-11-30T02:46:04.471Z,-3.39
2016-11-30T02:47:04.497Z,-3.42
2016-11-30T02:48:04.436Z,-3.47
2016-11-30T02:49:04.417Z,-3.47
2016-11-30T02:50:04.398Z,-3.43
2016-11-30T02:51:04.379Z,-3.47
2016-11-30T02:52:04.364Z,-3.38
2016-11-30T02:53:04.345Z,-3.47
2016-11-30T02:54:04.322Z,-3.48
2016-11-30T02:55:04.308Z,-3.51
2016-11-30T02:56:04.287Z,-3.5
2016-11-30T02:57:04.266Z,-3.51
2016-11-30T02:58:04.250Z,-3.5
2016-11-30T02:59:04.229Z,-3.5
2016-11-30T03:00:04.211Z,-3.54
2016-11-30T03:01:04.190Z,-3.65
2016-11-30T03:02:04.230Z,-3.53
2016-11-30T03:03:04.157Z,-3.53
2016-11-30T03:04:04.580Z,-3.63
2016-11-30T03:05:04.562Z,-3.63
2016-11-30T03:06:04.465Z,-3.58
2016-11-30T03:07:04.905Z,-3.65
2016-11-30T03:08:04.067Z,-3.71
2016-11-30T03:09:04.041Z,-3.65
2016-11-30T03:10:04.024Z,-3.63
2016-11-30T03:11:04.006Z,-3.69
2016-11-30T03:12:03.987Z,-3.6
2016-11-30T03:13:03.971Z,-3.51
2016-11-30T03:14:03.950Z,-3.57
2016-11-30T03:15:03.931Z,-3.53
2016-11-30T03:16:03.911Z,-3.4
2016-11-30T03:17:03.893Z,-3.36
2016-11-30T03:18:03.876Z,-3.32
2016-11-30T03:19:03.857Z,-3.28
2016-11-30T03:20:03.836Z,-3.38
2016-11-30T03:21:03.815Z,-3.32
2016-11-30T03:22:03.801Z,-3.3
2016-11-30T03:23:03.781Z,-3.43
2016-11-30T03:24:03.760Z,-3.33
2016-11-30T03:25:03.743Z,-3.32
2016-11-30T03:26:03.724Z,-3.33
2016-11-30T03:27:03.705Z,-3.35
2016-11-30T03:28:03.689Z,-3.35
2016-11-30T03:29:03.668Z,-3.38
2016-11-30T03:30:03.651Z,-3.4
2016-11-30T03:31:03.634Z,-3.36
2016-11-30T03:32:03.613Z,-3.29
2016-11-30T03:33:03.595Z,-3.25
2016-11-30T03:34:03.574Z,-3.12
2016-11-30T03:35:03.557Z,-3.18
2016-11-30T03:36:03.536Z,-3.19
2016-11-30T03:37:03.520Z,-3.21
2016-11-30T03:38:03.500Z,-3.12
2016-11-30T03:39:03.480Z,-3.17
2016-11-30T03:40:03.461Z,-3.15
2016-11-30T03:41:03.444Z,-3.12
2016-11-30T03:42:03.430Z,-3.21
2016-11-30T03:43:03.406Z,-3.24
2016-11-30T03:44:03.391Z,-3.3
2016-11-30T03:45:03.368Z,-3.25
2016-11-30T03:46:03.350Z,-3.29
2016-11-30T03:47:03.332Z,-3.29
2016-11-30T03:48:03.314Z,-3.3
2016-11-30T03:49:03.296Z,-3.29
2016-11-30T03:50:03.278Z,-3.33
2016-11-30T03:51:03.263Z,-3.38
2016-11-30T03:52:03.238Z,-3.38
2016-11-30T03:53:03.219Z,-3.36
2016-11-30T03:54:03.201Z,-3.38
2016-11-30T03:55:03.184Z,-3.32
2016-11-30T03:56:03.165Z,-3.5
2016-11-30T03:57:03.148Z,-3.45
2016-11-30T03:58:03.449Z,-3.4
2016-11-30T03:59:03.109Z,-3.4
2016-11-30T04:00:03.103Z,-3.43
2016-11-30T04:01:03.075Z,-3.4
2016-11-30T04:02:03.052Z,-3.43
2016-11-30T04:03:03.034Z,-3.48
2016-11-30T04:04:03.017Z,-3.39
2016-11-30T04:05:03.002Z,-3.53
2016-11-30T04:06:02.980Z,-3.5
2016-11-30T04:07:02.959Z,-3.47
2016-11-30T04:08:02.940Z,-3.48
2016-11-30T04:09:02.919Z,-3.5
2016-11-30T04:10:02.902Z,-3.42
2016-11-30T04:11:02.885Z,-3.47
2016-11-30T04:12:02.865Z,-3.42
2016-11-30T04:13:02.846Z,-3.4
2016-11-30T04:14:02.825Z,-3.43
2016-11-30T04:15:02.804Z,-3.5
2016-11-30T04:16:02.793Z,-3.39
2016-11-30T04:17:02.764Z,-3.47
2016-11-30T04:18:02.748Z,-3.51
2016-11-30T04:19:02.727Z,-3.5
2016-11-30T04:20:02.717Z,-3.5
2016-11-30T04:21:03.014Z,-3.51
2016-11-30T04:22:02.676Z,-3.53
2016-11-30T04:23:02.661Z,-3.48
2016-11-30T04:24:02.640Z,-3.53
2016-11-30T04:25:02.621Z,-3.51
2016-11-30T04:26:02.597Z,-3.5
2016-11-30T04:27:02.584Z,-3.47
2016-11-30T04:28:02.564Z,-3.5
2016-11-30T04:29:02.547Z,-3.51
2016-11-30T04:30:02.526Z,-3.47
2016-11-30T04:31:02.512Z,-3.5
2016-11-30T04:32:02.489Z,-3.45
2016-11-30T04:33:02.467Z,-3.47
2016-11-30T04:34:02.453Z,-3.56
2016-11-30T04:35:02.430Z,-3.47
2016-11-30T04:36:02.412Z,-3.53
2016-11-30T04:37:02.393Z,-3.58
2016-11-30T04:38:02.375Z,-3.51
2016-11-30T04:39:02.672Z,-3.48
2016-11-30T04:40:02.655Z,-3.47
2016-11-30T04:41:02.318Z,-3.54
2016-11-30T04:42:02.297Z,-3.47
2016-11-30T04:43:02.280Z,-3.53
2016-11-30T04:44:02.264Z,-3.48
2016-11-30T04:45:02.243Z,-3.5
2016-11-30T04:46:02.223Z,-3.53
2016-11-30T04:47:02.205Z,-3.51
2016-11-30T04:48:02.189Z,-3.53
2016-11-30T04:49:02.167Z,-3.51
2016-11-30T04:50:02.149Z,-3.43
2016-11-30T04:51:02.149Z,-3.54
2016-11-30T04:52:02.110Z,-3.48
2016-11-30T04:53:02.093Z,-3.56
2016-11-30T04:54:02.078Z,-3.51
2016-11-30T04:55:02.056Z,-3.54
2016-11-30T04:56:02.041Z,-3.51
2016-11-30T04:57:02.018Z,-3.51
2016-11-30T04:58:02.006Z,-3.51
2016-11-30T04:59:01.982Z,-3.51
2016-11-30T05:00:01.965Z,-3.51
2016-11-30T05:01:01.943Z,-3.54
2016-11-30T05:02:01.923Z,-3.56
2016-11-30T05:03:01.907Z,-3.57
2016-11-30T05:04:01.882Z,-3.53
2016-11-30T05:05:01.875Z,-3.51
2016-11-30T05:06:01.851Z,-3.51
2016-11-30T05:07:01.842Z,-3.48
2016-11-30T05:08:01.813Z,-3.51
2016-11-30T05:09:01.794Z,-3.51
2016-11-30T05:10:01.775Z,-3.54
2016-11-30T05:11:01.750Z,-3.54
2016-11-30T05:12:01.741Z,-3.51
2016-11-30T05:13:01.716Z,-3.48
2016-11-30T05:14:01.699Z,-3.47
2016-11-30T05:15:01.678Z,-3.48
2016-11-30T05:16:01.662Z,-3.51
2016-11-30T05:17:01.676Z,-3.47
2016-11-30T05:18:01.624Z,-3.56
2016-11-30T05:19:01.598Z,-3.48
2016-11-30T05:20:01.584Z,-3.51
2016-11-30T05:21:01.566Z,-3.54
2016-11-30T05:22:01.547Z,-3.48
2016-11-30T05:23:01.532Z,-3.48
2016-11-30T05:24:01.511Z,-3.4
2016-11-30T05:25:01.492Z,-3.56
2016-11-30T05:26:01.468Z,-3.42
2016-11-30T05:27:01.450Z,-3.43
2016-11-30T05:28:01.439Z,-3.48
2016-11-30T05:29:01.415Z,-3.51
2016-11-30T05:30:01.396Z,-3.5
2016-11-30T05:31:01.694Z,-3.51
2016-11-30T05:32:01.358Z,-3.47
2016-11-30T05:33:01.339Z,-3.48
2016-11-30T05:34:01.320Z,-3.45
2016-11-30T05:35:01.302Z,-3.43
2016-11-30T05:36:01.282Z,-3.43
2016-11-30T05:37:01.262Z,-3.45
2016-11-30T05:38:01.245Z,-3.51
2016-11-30T05:39:01.227Z,-3.45
2016-11-30T05:40:01.207Z,-3.47
2016-11-30T05:41:01.191Z,-3.42
2016-11-30T05:42:01.170Z,-3.38
2016-11-30T05:43:01.149Z,-3.39
2016-11-30T05:44:01.133Z,-3.47
2016-11-30T05:45:01.114Z,-3.4
2016-11-30T05:46:01.099Z,-3.35
2016-11-30T05:47:01.078Z,-3.33
2016-11-30T05:48:01.084Z,-3.33
2016-11-30T05:49:01.039Z,-3.29
2016-11-30T05:50:01.017Z,-3.36
2016-11-30T05:51:01.014Z,-3.33
2016-11-30T05:52:00.991Z,-3.35
2016-11-30T05:53:00.965Z,-3.36
2016-11-30T05:54:00.949Z,-3.35
2016-11-30T05:55:00.928Z,-3.33
2016-11-30T05:56:00.915Z,-3.38
2016-11-30T05:57:00.889Z,-3.33
2016-11-30T05:58:00.880Z,-3.38
2016-11-30T05:59:00.848Z,-3.36
2016-11-30T06:00:00.835Z,-3.43
2016-11-30T06:01:00.816Z,-3.35
2016-11-30T06:02:00.801Z,-3.32
2016-11-30T06:03:00.776Z,-3.39
2016-11-30T06:04:00.758Z,-3.36
2016-11-30T06:05:00.740Z,-3.32
2016-11-30T06:06:00.721Z,-3.36
2016-11-30T06:07:00.701Z,-3.33
2016-11-30T06:08:00.681Z,-3.29
2016-11-30T06:09:00.659Z,-3.32
2016-11-30T06:10:00.680Z,-3.19
2016-11-30T06:11:00.624Z,-3.15
2016-11-30T06:12:00.606Z,-3.04
2016-11-30T06:13:00.586Z,-3.07
2016-11-30T06:14:00.571Z,-3.12
2016-11-30T06:15:00.551Z,-3.01
2016-11-30T06:16:00.531Z,-2.91
2016-11-30T06:17:00.519Z,-3.04
2016-11-30T06:18:00.819Z,-3.09
2016-11-30T06:19:00.480Z,-2.97
2016-11-30T06:20:00.453Z,-3.06
2016-11-30T06:21:00.441Z,-3.06
2016-11-30T06:22:00.418Z,-3.03
2016-11-30T06:23:00.400Z,-3.07
2016-11-30T06:24:00.385Z,-3.11
2016-11-30T06:25:00.370Z,-3.07
2016-11-30T06:26:00.343Z,-3.09
2016-11-30T06:27:00.324Z,-3.04
2016-11-30T06:28:00.316Z,-3.01
2016-11-30T06:29:00.289Z,-3.03
2016-11-30T06:30:00.274Z,-3.03
2016-11-30T06:31:00.258Z,-3.12
2016-11-30T06:32:00.236Z,-3.06
2016-11-30T06:33:00.217Z,-3.15
2016-11-30T06:34:00.200Z,-3.15
2016-11-30T06:35:00.179Z,-3.12
2016-11-30T06:36:00.162Z,-3.04
2016-11-30T06:37:00.144Z,-3.03
2016-11-30T06:38:00.124Z,-3.09
2016-11-30T06:39:00.111Z,-2.94
2016-11-30T06:40:00.088Z,-2.97
2016-11-30T06:41:00.070Z,-2.97
2016-11-30T06:42:00.053Z,-2.96
2016-11-30T06:43:00.040Z,-3.04
2016-11-30T06:44:00.012Z,-2.85
2016-11-30T06:44:59.996Z,-2.97
2016-11-30T06:45:59.979Z,-2.91
2016-11-30T06:46:59.954Z,-2.83
2016-11-30T06:47:59.939Z,-2.86
2016-11-30T06:49:31.995Z,-2.86
2016-11-30T06:49:59.898Z,-2.82
2016-11-30T06:50:59.885Z,-2.85
2016-11-30T06:51:59.865Z,-2.86
2016-11-30T06:52:59.847Z,-2.81
2016-11-30T06:53:59.826Z,-2.82
2016-11-30T06:54:59.807Z,-2.81
2016-11-30T06:55:59.794Z,-2.86
2016-11-30T06:56:59.780Z,-2.78
2016-11-30T06:57:59.755Z,-2.82
2016-11-30T06:58:59.740Z,-2.73
2016-11-30T06:59:59.718Z,-2.7
2016-11-30T07:00:59.702Z,-2.78
2016-11-30T07:01:59.692Z,-2.72
2016-11-30T07:02:59.658Z,-2.65
2016-11-30T07:03:59.644Z,-2.62
2016-11-30T07:04:59.628Z,-2.6
2016-11-30T07:05:59.604Z,-2.64
2016-11-30T07:06:59.587Z,-2.68
2016-11-30T07:07:59.569Z,-2.64
2016-11-30T07:08:59.558Z,-2.62
2016-11-30T07:09:59.532Z,-2.57
2016-11-30T07:10:59.524Z,-2.67
2016-11-30T07:11:59.496Z,-2.6
2016-11-30T07:12:59.505Z,-2.58
2016-11-30T07:13:59.456Z,-2.46
2016-11-30T07:14:59.437Z,-2.53
2016-11-30T07:15:59.420Z,-2.46
2016-11-30T07:16:59.404Z,-2.57
2016-11-30T07:17:59.387Z,-2.57
2016-11-30T07:18:59.366Z,-2.6
2016-11-30T07:19:59.345Z,-2.46
2016-11-30T07:20:59.330Z,-2.54
2016-11-30T07:21:59.308Z,-2.5
2016-11-30T07:22:59.292Z,-2.54
2016-11-30T07:23:59.271Z,-2.54
2016-11-30T07:24:59.257Z,-2.5
2016-11-30T07:25:59.236Z,-2.5
2016-11-30T07:26:59.218Z,-2.47
2016-11-30T07:27:59.199Z,-2.5
2016-11-30T07:28:59.187Z,-2.47
2016-11-30T07:29:59.161Z,-2.5
2016-11-30T07:30:59.146Z,-2.5
2016-11-30T07:31:59.128Z,-2.49
2016-11-30T07:32:59.103Z,-2.58
2016-11-30T07:33:59.091Z,-2.54
2016-11-30T07:34:59.072Z,-2.61
2016-11-30T07:35:59.379Z,-2.53
2016-11-30T07:36:59.035Z,-2.47
2016-11-30T07:37:59.015Z,-2.47
2016-11-30T07:38:58.999Z,-2.49
2016-11-30T07:39:58.977Z,-2.53
2016-11-30T07:40:58.966Z,-2.47
2016-11-30T07:41:58.939Z,-2.43
2016-11-30T07:42:58.928Z,-2.5
2016-11-30T07:43:58.909Z,-2.5
2016-11-30T07:44:58.888Z,-2.37
2016-11-30T07:45:58.872Z,-2.42
2016-11-30T07:46:58.853Z,-2.34
2016-11-30T07:47:58.833Z,-2.28
2016-11-30T07:48:58.817Z,-2.27
2016-11-30T07:49:58.799Z,-2.21
2016-11-30T07:50:58.779Z,-2.2
2016-11-30T07:51:58.762Z,-2.2
2016-11-30T07:52:58.767Z,-2.14
2016-11-30T07:53:58.723Z,-2.1
2016-11-30T07:54:58.710Z,-2.03
2016-11-30T07:55:59.005Z,-2.09
2016-11-30T07:56:58.670Z,-1.99
2016-11-30T07:57:58.651Z,-1.97
2016-11-30T07:58:58.632Z,-1.97
2016-11-30T07:59:58.617Z,-1.78
2016-11-30T08:00:58.600Z,-1.86
2016-11-30T08:01:58.586Z,-1.79
2016-11-30T08:02:58.564Z,-1.81
2016-11-30T08:03:58.548Z,-1.82
2016-11-30T08:04:58.525Z,-1.66
2016-11-30T08:05:58.509Z,-1.68
2016-11-30T08:06:58.489Z,-1.64
2016-11-30T08:07:58.470Z,-1.61
2016-11-30T08:08:58.457Z,-1.61
2016-11-30T08:09:58.441Z,-1.66
2016-11-30T08:10:58.426Z,-1.53
2016-11-30T08:11:58.404Z,-1.42
2016-11-30T08:12:58.383Z,-1.56
2016-11-30T08:13:58.363Z,-1.56
2016-11-30T08:14:58.348Z,-1.43
2016-11-30T08:15:58.337Z,-1.38
2016-11-30T08:16:58.318Z,-1.38
2016-11-30T08:17:58.296Z,-1.34
2016-11-30T08:18:58.283Z,-1.25
2016-11-30T08:19:58.577Z,-1.34
2016-11-30T08:20:58.250Z,-1.22
2016-11-30T08:21:58.227Z,-1.24
2016-11-30T08:22:58.210Z,-1.1
2016-11-30T08:23:58.194Z,-1.1
2016-11-30T08:24:58.177Z,-1.06
2016-11-30T08:25:58.152Z,-0.99
2016-11-30T08:26:58.135Z,-0.96
2016-11-30T08:27:58.123Z,-0.98
2016-11-30T08:28:58.119Z,-0.89
2016-11-30T08:29:58.084Z,-0.87
2016-11-30T08:30:58.068Z,-0.8
2016-11-30T08:31:58.051Z,-0.82
2016-11-30T08:32:58.032Z,-0.8
2016-11-30T08:33:58.032Z,-0.76
2016-11-30T08:34:57.997Z,-0.67
2016-11-30T08:35:57.987Z,-0.69
2016-11-30T08:36:57.972Z,-0.69
2016-11-30T08:37:57.949Z,-0.66
2016-11-30T08:38:57.934Z,-0.66
2016-11-30T08:39:57.909Z,-0.67
2016-11-30T08:40:57.893Z,-0.56
2016-11-30T08:41:57.878Z,-0.51
2016-11-30T08:42:57.865Z,-0.48
2016-11-30T08:43:57.845Z,-0.37
2016-11-30T08:44:57.825Z,-0.48
2016-11-30T08:45:57.809Z,-0.49
2016-11-30T08:46:57.790Z,-0.49
2016-11-30T08:47:57.776Z,-0.54
2016-11-30T08:48:57.757Z,-0.46
2016-11-30T08:49:57.740Z,-0.43
2016-11-30T08:50:57.723Z,-0.45
2016-11-30T08:51:57.704Z,-0.38
2016-11-30T08:52:57.687Z,-0.38
2016-11-30T08:53:57.671Z,-0.41
2016-11-30T08:54:57.658Z,-0.41
2016-11-30T08:55:57.635Z,-0.45
2016-11-30T08:56:57.623Z,-0.38
2016-11-30T08:57:57.604Z,-0.4
2016-11-30T08:58:57.589Z,-0.43
2016-11-30T08:59:57.570Z,-0.37
2016-11-30T09:00:57.546Z,-0.41
2016-11-30T09:01:57.534Z,-0.41
2016-11-30T09:02:57.554Z,-0.51
2016-11-30T09:03:57.504Z,-0.46
2016-11-30T09:04:57.484Z,-0.51
2016-11-30T09:05:57.463Z,-0.51
2016-11-30T09:06:57.449Z,-0.51
2016-11-30T09:07:57.435Z,-0.58
2016-11-30T09:08:57.415Z,-0.59
2016-11-30T09:09:57.397Z,-0.59
2016-11-30T09:10:57.379Z,-0.59
2016-11-30T09:11:57.362Z,-0.56
2016-11-30T09:12:57.351Z,-0.69
2016-11-30T09:13:57.335Z,-0.7
2016-11-30T09:14:57.314Z,-0.67
2016-11-30T09:15:57.292Z,-0.58
2016-11-30T09:16:57.277Z,-0.66
2016-11-30T09:17:57.260Z,-0.67
2016-11-30T09:18:57.557Z,-0.67
2016-11-30T09:19:57.231Z,-0.67
2016-11-30T09:20:57.209Z,-0.61
2016-11-30T09:21:57.192Z,-0.69
2016-11-30T09:22:57.176Z,-0.69
2016-11-30T09:23:57.160Z,-0.64
2016-11-30T09:24:57.137Z,-0.58
2016-11-30T09:25:57.125Z,-0.62
2016-11-30T09:26:57.111Z,-0.7
2016-11-30T09:27:57.091Z,-0.61
2016-11-30T09:28:57.073Z,-0.66
2016-11-30T09:29:57.056Z,-0.69
2016-11-30T09:30:57.041Z,-0.62
2016-11-30T09:31:57.020Z,-0.69
2016-11-30T09:32:57.006Z,-0.59
2016-11-30T09:33:56.987Z,-0.67
2016-11-30T09:34:56.972Z,-0.55
2016-11-30T09:35:56.952Z,-0.61
2016-11-30T09:36:56.935Z,-0.56
2016-11-30T09:37:56.917Z,-0.56
2016-11-30T09:38:56.908Z,-0.52
2016-11-30T09:39:56.884Z,-0.51
2016-11-30T09:40:56.870Z,-0.46
2016-11-30T09:41:56.850Z,-0.54
2016-11-30T09:42:56.830Z,-0.52
2016-11-30T09:43:57.139Z,-0.37
2016-11-30T09:44:56.805Z,-0.46
2016-11-30T09:45:56.785Z,-0.36
2016-11-30T09:46:56.766Z,-0.38
2016-11-30T09:47:56.747Z,-0.38
2016-11-30T09:48:56.758Z,-0.36
2016-11-30T09:49:56.715Z,-0.27
2016-11-30T09:50:56.707Z,-0.33
2016-11-30T09:51:56.686Z,-0.33
2016-11-30T09:52:56.670Z,-0.22
2016-11-30T09:53:56.644Z,-0.18
2016-11-30T09:54:56.631Z,-0.16
2016-11-30T09:55:56.614Z,-0.12
2016-11-30T09:56:56.599Z,-0.07
2016-11-30T09:57:56.583Z,-0.02
2016-11-30T09:58:56.568Z,-0.02
2016-11-30T09:59:56.545Z,0.03
2016-11-30T10:00:56.532Z,0.02
2016-11-30T10:01:56.518Z,0.08
2016-11-30T10:02:56.497Z,0.14
2016-11-30T10:03:56.482Z,0.16
2016-11-30T10:04:56.464Z,0.13
2016-11-30T10:05:56.444Z,0.14
2016-11-30T10:06:56.431Z,0.03
2016-11-30T10:07:56.411Z,0.03
2016-11-30T10:08:56.390Z,0.13
2016-11-30T10:09:56.379Z,0.1
2016-11-30T10:10:56.360Z,-0.02
2016-11-30T10:11:56.349Z,0.03
2016-11-30T10:12:56.329Z,0.1
2016-11-30T10:13:56.314Z,0.1
2016-11-30T10:14:56.296Z,0.06
2016-11-30T10:15:56.277Z,0.08
2016-11-30T10:16:56.266Z,0.14
2016-11-30T10:17:56.243Z,0.09
2016-11-30T10:18:56.545Z,0.03
2016-11-30T10:19:56.212Z,-0.04
2016-11-30T10:20:56.194Z,-0.01
2016-11-30T10:21:56.180Z,-0.02
2016-11-30T10:22:56.159Z,-0.04
2016-11-30T10:23:56.149Z,-0.04
2016-11-30T10:24:56.128Z,0.01
2016-11-30T10:25:56.111Z,-0.01
2016-11-30T10:26:56.096Z,0.02
2016-11-30T10:27:56.076Z,0.13
2016-11-30T10:28:56.060Z,0.09
2016-11-30T10:29:56.043Z,0.03
2016-11-30T10:30:56.029Z,0.17
2016-11-30T10:31:56.009Z,0.09
2016-11-30T10:32:55.993Z,0.2
2016-11-30T10:33:55.975Z,0.17
2016-11-30T10:34:55.959Z,0.32
2016-11-30T10:35:55.944Z,0.26
2016-11-30T10:36:55.931Z,0.34
2016-11-30T10:37:55.910Z,0.44
2016-11-30T10:38:55.901Z,0.37
2016-11-30T10:39:55.875Z,0.35
2016-11-30T10:40:55.864Z,0.41
2016-11-30T10:41:55.846Z,0.41
2016-11-30T10:42:55.826Z,0.39
2016-11-30T10:43:55.811Z,0.44
2016-11-30T10:44:55.793Z,0.53
2016-11-30T10:45:55.780Z,0.56
2016-11-30T10:46:55.760Z,0.67
2016-11-30T10:47:55.742Z,0.67
2016-11-30T10:48:55.729Z,0.74
2016-11-30T10:49:55.711Z,0.84
2016-11-30T10:50:55.695Z,0.76
2016-11-30T10:51:55.678Z,0.81
2016-11-30T10:52:55.656Z,0.9
2016-11-30T10:53:55.644Z,0.9
2016-11-30T10:54:55.627Z,0.79
2016-11-30T10:55:55.608Z,0.89
2016-11-30T10:56:55.601Z,0.94
2016-11-30T10:57:55.578Z,0.92
2016-11-30T10:58:55.562Z,0.93
2016-11-30T10:59:55.546Z,0.9
2016-11-30T11:00:55.531Z,0.94
2016-11-30T11:01:55.512Z,0.94
2016-11-30T11:02:55.496Z,0.96
2016-11-30T11:03:55.478Z,0.9
2016-11-30T11:04:55.463Z,0.93
2016-11-30T11:05:55.448Z,0.9
2016-11-30T11:06:55.434Z,0.86
2016-11-30T11:07:55.412Z,0.93
2016-11-30T11:08:55.396Z,0.9
2016-11-30T11:09:55.386Z,0.93
2016-11-30T11:10:55.363Z,0.93
2016-11-30T11:11:55.349Z,0.96
2016-11-30T11:12:55.336Z,0.85
2016-11-30T11:13:55.321Z,0.85
2016-11-30T11:14:55.307Z,0.97
2016-11-30T11:15:55.287Z,0.97
2016-11-30T11:16:55.269Z,0.94
2016-11-30T11:17:55.252Z,0.94
2016-11-30T11:18:55.233Z,0.97
2016-11-30T11:19:55.221Z,1.1
2016-11-30T11:20:55.201Z,0.99
2016-11-30T11:21:55.189Z,1.11
2016-11-30T11:22:55.172Z,1.1
2016-11-30T11:23:55.153Z,1.2
2016-11-30T11:24:55.139Z,1.2
2016-11-30T11:25:55.120Z,1.2
2016-11-30T11:26:55.106Z,1.2
2016-11-30T11:27:55.086Z,1.38
2016-11-30T11:28:55.076Z,1.4
2016-11-30T11:29:55.057Z,1.39
2016-11-30T11:30:55.042Z,1.5
2016-11-30T11:31:55.023Z,1.47
2016-11-30T11:32:55.005Z,1.48
2016-11-30T11:33:54.996Z,1.57
2016-11-30T11:34:54.977Z,1.57
2016-11-30T11:35:54.963Z,1.56
2016-11-30T11:36:55.257Z,1.68
2016-11-30T11:37:54.931Z,1.74
2016-11-30T11:38:54.914Z,1.72
2016-11-30T11:39:54.891Z,1.87
2016-11-30T11:40:54.881Z,1.84
2016-11-30T11:41:54.893Z,1.86
2016-11-30T11:42:54.850Z,1.94
2016-11-30T11:43:54.832Z,1.93
2016-11-30T11:44:54.825Z,1.94
2016-11-30T11:45:54.802Z,2.02
2016-11-30T11:46:54.791Z,1.9
2016-11-30T11:47:54.770Z,2.02
2016-11-30T11:48:54.752Z,2.11
2016-11-30T11:49:54.744Z,2.05
2016-11-30T11:50:54.725Z,2.09
2016-11-30T11:51:54.707Z,2.06
2016-11-30T11:52:54.690Z,2.12
2016-11-30T11:53:54.676Z,2.15
2016-11-30T11:54:54.672Z,2.16
2016-11-30T11:55:54.646Z,2.13
2016-11-30T11:56:54.636Z,2.23
2016-11-30T11:57:54.615Z,2.18
2016-11-30T11:58:54.617Z,2.26
2016-11-30T11:59:54.582Z,2.3
2016-11-30T12:00:54.572Z,2.3
2016-11-30T12:01:54.556Z,2.33
2016-11-30T12:02:54.538Z,2.26
2016-11-30T12:03:54.522Z,2.34
2016-11-30T12:04:54.506Z,2.36
2016-11-30T12:05:54.488Z,2.27
2016-11-30T12:06:54.478Z,2.45
2016-11-30T12:07:54.456Z,2.55
2016-11-30T12:08:54.442Z,2.55
2016-11-30T12:09:54.431Z,2.55
2016-11-30T12:10:54.413Z,2.49
2016-11-30T12:11:54.398Z,2.55
2016-11-30T12:12:54.385Z,2.54
2016-11-30T12:13:54.363Z,2.51
2016-11-30T12:14:54.348Z,2.55
2016-11-30T12:15:54.340Z,2.54
2016-11-30T12:16:54.320Z,2.54
2016-11-30T12:17:54.306Z,2.62
2016-11-30T12:18:54.289Z,2.63
2016-11-30T12:19:54.275Z,2.62
2016-11-30T12:20:54.261Z,2.52
2016-11-30T12:21:54.246Z,2.55
2016-11-30T12:22:54.231Z,2.48
2016-11-30T12:23:54.213Z,2.48
2016-11-30T12:24:54.202Z,2.48
2016-11-30T12:25:54.180Z,2.41
2016-11-30T12:26:54.168Z,2.36
2016-11-30T12:27:54.156Z,2.44
2016-11-30T12:28:54.139Z,2.4
2016-11-30T12:29:54.126Z,2.34
2016-11-30T12:30:54.109Z,2.41
2016-11-30T12:31:54.093Z,2.34
2016-11-30T12:32:54.081Z,2.33
2016-11-30T12:33:54.067Z,2.38
2016-11-30T12:34:54.048Z,2.4
2016-11-30T12:35:54.042Z,2.31
2016-11-30T12:36:54.019Z,2.34
2016-11-30T12:37:54.003Z,2.4
2016-11-30T12:38:53.984Z,2.34
2016-11-30T12:39:53.974Z,2.34
2016-11-30T12:40:53.964Z,2.38
2016-11-30T12:41:53.944Z,2.31
2016-11-30T12:42:53.930Z,2.31
2016-11-30T12:43:53.910Z,2.34
2016-11-30T12:44:53.900Z,2.3
2016-11-30T12:45:53.880Z,2.34
2016-11-30T12:46:53.865Z,2.38
2016-11-30T12:47:53.862Z,2.38
2016-11-30T12:48:53.837Z,2.36
2016-11-30T12:49:53.819Z,2.31
2016-11-30T12:50:53.809Z,2.41
2016-11-30T12:51:53.794Z,2.3
2016-11-30T12:52:53.778Z,2.34
2016-11-30T12:53:53.771Z,2.33
2016-11-30T12:54:53.754Z,2.29
2016-11-30T12:55:53.730Z,2.2
2016-11-30T12:56:53.713Z,2.23
2016-11-30T12:57:53.699Z,2.2
2016-11-30T12:58:53.688Z,2.15
2016-11-30T12:59:53.667Z,2.16
2016-11-30T13:00:53.661Z,2.06